sensor_id;sensor_type;location;lat;lon;timestamp;temperature;humidity
5588;DHT22;2816;49.778;9.986;2023-06-22T00:01:22;21.30;99.90
5588;DHT22;2816;49.778;9.986;2023-06-22T00:03:49;21.30;99.90
5588;DHT22;2816;49.778;9.986;2023-06-22T00:06:16;21.30;99.90
5588;DHT22;2816;49.778;9.986;2023-06-22T00:08:44;21.30;99.90
5588;DHT22;2816;49.778;9.986;2023-06-22T00:11:11;21.30;99.90
5588;DHT22;2816;49.778;9.986;2023-06-22T00:13:39;21.30;99.90
5588;DHT22;2816;49.778;9.986;2023-06-22T00:16:05;21.40;99.90
5588;DHT22;2816;49.778;9.986;2023-06-22T00:18:32;21.30;99.90
5588;DHT22;2816;49.778;9.986;2023-06-22T00:20:59;21.20;99.90
5588;DHT22;2816;49.778;9.986;2023-06-22T00:23:27;21.10;99.90
5588;DHT22;2816;49.778;9.986;2023-06-22T00:26:00;21.10;99.90
5588;DHT22;2816;49.778;9.986;2023-06-22T00:28:27;21.10;99.90
5588;DHT22;2816;49.778;9.986;2023-06-22T00:30:55;21.00;99.90
5588;DHT22;2816;49.778;9.986;2023-06-22T00:33:23;21.00;99.90
5588;DHT22;2816;49.778;9.986;2023-06-22T00:35:50;20.90;99.90
5588;DHT22;2816;49.778;9.986;2023-06-22T00:38:19;20.90;99.90
5588;DHT22;2816;49.778;9.986;2023-06-22T00:40:46;20.80;99.90
5588;DHT22;2816;49.778;9.986;2023-06-22T00:43:14;20.80;99.90
5588;DHT22;2816;49.778;9.986;2023-06-22T00:45:41;20.70;99.90
5588;DHT22;2816;49.778;9.986;2023-06-22T00:48:08;20.70;99.90
5588;DHT22;2816;49.778;9.986;2023-06-22T00:50:35;20.70;99.90
5588;DHT22;2816;49.778;9.986;2023-06-22T00:53:04;20.70;99.90
5588;DHT22;2816;49.778;9.986;2023-06-22T00:55:33;20.70;99.90
5588;DHT22;2816;49.778;9.986;2023-06-22T00:58:03;20.80;99.90
5588;DHT22;2816;49.778;9.986;2023-06-22T01:00:32;20.80;99.90
5588;DHT22;2816;49.778;9.986;2023-06-22T01:02:59;20.90;99.90
5588;DHT22;2816;49.778;9.986;2023-06-22T01:05:26;20.90;99.90
5588;DHT22;2816;49.778;9.986;2023-06-22T01:08:04;20.90;99.90
5588;DHT22;2816;49.778;9.986;2023-06-22T01:10:38;20.90;99.90
5588;DHT22;2816;49.778;9.986;2023-06-22T01:13:10;20.90;99.90
5588;DHT22;2816;49.778;9.986;2023-06-22T01:15:45;20.90;99.90
5588;DHT22;2816;49.778;9.986;2023-06-22T01:18:15;20.90;99.90
5588;DHT22;2816;49.778;9.986;2023-06-22T01:20:44;21.00;99.90
5588;DHT22;2816;49.778;9.986;2023-06-22T01:23:26;20.90;99.90
5588;DHT22;2816;49.778;9.986;2023-06-22T01:25:59;20.90;99.90
5588;DHT22;2816;49.778;9.986;2023-06-22T01:28:45;20.80;99.90
5588;DHT22;2816;49.778;9.986;2023-06-22T01:31:14;20.80;99.90
5588;DHT22;2816;49.778;9.986;2023-06-22T01:33:45;20.80;99.90
5588;DHT22;2816;49.778;9.986;2023-06-22T01:36:14;20.80;99.90
5588;DHT22;2816;49.778;9.986;2023-06-22T01:38:43;20.80;99.90
5588;DHT22;2816;49.778;9.986;2023-06-22T01:41:11;20.80;99.90
5588;DHT22;2816;49.778;9.986;2023-06-22T01:43:39;20.80;99.90
5588;DHT22;2816;49.778;9.986;2023-06-22T01:46:08;20.80;99.90
5588;DHT22;2816;49.778;9.986;2023-06-22T01:48:35;20.90;99.90
5588;DHT22;2816;49.778;9.986;2023-06-22T01:51:02;20.90;99.90
5588;DHT22;2816;49.778;9.986;2023-06-22T01:53:29;20.80;99.90
5588;DHT22;2816;49.778;9.986;2023-06-22T01:55:57;20.80;99.90
5588;DHT22;2816;49.778;9.986;2023-06-22T01:58:27;20.70;99.90
5588;DHT22;2816;49.778;9.986;2023-06-22T02:00:58;20.60;99.90
5588;DHT22;2816;49.778;9.986;2023-06-22T02:03:31;20.60;99.90
5588;DHT22;2816;49.778;9.986;2023-06-22T02:06:03;20.60;99.90
5588;DHT22;2816;49.778;9.986;2023-06-22T02:08:35;20.60;99.90
5588;DHT22;2816;49.778;9.986;2023-06-22T02:11:04;20.60;99.90
5588;DHT22;2816;49.778;9.986;2023-06-22T02:13:33;20.70;99.90
5588;DHT22;2816;49.778;9.986;2023-06-22T02:16:01;20.70;99.90
5588;DHT22;2816;49.778;9.986;2023-06-22T02:18:29;20.70;99.90
5588;DHT22;2816;49.778;9.986;2023-06-22T02:20:56;20.80;99.90
5588;DHT22;2816;49.778;9.986;2023-06-22T02:23:23;20.80;99.90
5588;DHT22;2816;49.778;9.986;2023-06-22T02:25:50;20.80;99.90
5588;DHT22;2816;49.778;9.986;2023-06-22T02:28:17;21.00;99.90
5588;DHT22;2816;49.778;9.986;2023-06-22T02:30:43;21.00;99.90
5588;DHT22;2816;49.778;9.986;2023-06-22T02:33:10;21.00;99.90
5588;DHT22;2816;49.778;9.986;2023-06-22T02:35:39;21.00;99.90
5588;DHT22;2816;49.778;9.986;2023-06-22T02:38:11;21.10;99.90
5588;DHT22;2816;49.778;9.986;2023-06-22T02:40:37;20.80;99.90
5588;DHT22;2816;49.778;9.986;2023-06-22T02:43:04;20.50;99.90
5588;DHT22;2816;49.778;9.986;2023-06-22T02:45:31;20.40;99.90
5588;DHT22;2816;49.778;9.986;2023-06-22T02:47:58;20.30;99.90
5588;DHT22;2816;49.778;9.986;2023-06-22T02:50:25;20.20;99.90
5588;DHT22;2816;49.778;9.986;2023-06-22T02:52:53;20.20;99.90
5588;DHT22;2816;49.778;9.986;2023-06-22T02:55:20;20.10;99.90
5588;DHT22;2816;49.778;9.986;2023-06-22T02:57:47;20.10;99.90
5588;DHT22;2816;49.778;9.986;2023-06-22T03:00:18;20.20;99.90
5588;DHT22;2816;49.778;9.986;2023-06-22T03:02:47;20.20;99.90
5588;DHT22;2816;49.778;9.986;2023-06-22T03:05:14;20.20;99.90
5588;DHT22;2816;49.778;9.986;2023-06-22T03:07:44;20.20;99.90
5588;DHT22;2816;49.778;9.986;2023-06-22T03:10:14;20.30;99.90
5588;DHT22;2816;49.778;9.986;2023-06-22T03:12:42;20.30;99.90
5588;DHT22;2816;49.778;9.986;2023-06-22T03:15:10;20.30;99.90
5588;DHT22;2816;49.778;9.986;2023-06-22T03:17:38;20.30;99.90
5588;DHT22;2816;49.778;9.986;2023-06-22T03:20:07;20.30;99.90
5588;DHT22;2816;49.778;9.986;2023-06-22T03:22:36;20.30;99.90
5588;DHT22;2816;49.778;9.986;2023-06-22T03:25:03;20.30;99.90
5588;DHT22;2816;49.778;9.986;2023-06-22T03:27:36;20.30;99.90
5588;DHT22;2816;49.778;9.986;2023-06-22T03:30:04;20.40;99.90
5588;DHT22;2816;49.778;9.986;2023-06-22T03:32:31;20.40;99.90
5588;DHT22;2816;49.778;9.986;2023-06-22T03:34:58;20.40;99.90
5588;DHT22;2816;49.778;9.986;2023-06-22T03:37:25;20.40;99.90
5588;DHT22;2816;49.778;9.986;2023-06-22T03:39:52;20.40;99.90
5588;DHT22;2816;49.778;9.986;2023-06-22T03:42:19;20.50;99.90
5588;DHT22;2816;49.778;9.986;2023-06-22T03:44:48;20.50;99.90
5588;DHT22;2816;49.778;9.986;2023-06-22T03:47:15;20.50;99.90
5588;DHT22;2816;49.778;9.986;2023-06-22T03:49:41;20.50;99.90
5588;DHT22;2816;49.778;9.986;2023-06-22T03:52:09;20.50;99.90
5588;DHT22;2816;49.778;9.986;2023-06-22T03:54:36;20.60;99.90
5588;DHT22;2816;49.778;9.986;2023-06-22T03:57:04;20.60;99.90
5588;DHT22;2816;49.778;9.986;2023-06-22T03:59:31;20.60;99.90
5588;DHT22;2816;49.778;9.986;2023-06-22T04:01:59;20.60;99.90
5588;DHT22;2816;49.778;9.986;2023-06-22T04:04:26;20.60;99.90
5588;DHT22;2816;49.778;9.986;2023-06-22T04:06:53;20.60;99.90
5588;DHT22;2816;49.778;9.986;2023-06-22T04:09:20;20.60;99.90
5588;DHT22;2816;49.778;9.986;2023-06-22T04:11:48;20.60;99.90
5588;DHT22;2816;49.778;9.986;2023-06-22T04:14:15;20.50;99.90
5588;DHT22;2816;49.778;9.986;2023-06-22T04:16:42;20.60;99.90
5588;DHT22;2816;49.778;9.986;2023-06-22T04:19:10;20.60;99.90
5588;DHT22;2816;49.778;9.986;2023-06-22T04:21:42;20.60;99.90
5588;DHT22;2816;49.778;9.986;2023-06-22T04:24:08;20.60;99.90
5588;DHT22;2816;49.778;9.986;2023-06-22T04:26:35;20.60;99.90
5588;DHT22;2816;49.778;9.986;2023-06-22T04:29:03;20.60;99.90
5588;DHT22;2816;49.778;9.986;2023-06-22T04:31:31;20.60;99.90
5588;DHT22;2816;49.778;9.986;2023-06-22T04:34:03;20.60;99.90
5588;DHT22;2816;49.778;9.986;2023-06-22T04:36:34;20.60;99.90
5588;DHT22;2816;49.778;9.986;2023-06-22T04:39:04;20.50;99.90
5588;DHT22;2816;49.778;9.986;2023-06-22T04:41:32;20.50;99.90
5588;DHT22;2816;49.778;9.986;2023-06-22T04:44:08;20.50;99.90
5588;DHT22;2816;49.778;9.986;2023-06-22T04:46:35;20.50;99.90
5588;DHT22;2816;49.778;9.986;2023-06-22T04:49:04;20.50;99.90
5588;DHT22;2816;49.778;9.986;2023-06-22T04:51:39;20.50;99.90
5588;DHT22;2816;49.778;9.986;2023-06-22T04:54:07;20.50;99.90
5588;DHT22;2816;49.778;9.986;2023-06-22T04:56:34;20.50;99.90
5588;DHT22;2816;49.778;9.986;2023-06-22T04:59:02;20.50;99.90
5588;DHT22;2816;49.778;9.986;2023-06-22T05:01:29;20.60;99.90
5588;DHT22;2816;49.778;9.986;2023-06-22T05:03:57;20.60;99.90
5588;DHT22;2816;49.778;9.986;2023-06-22T05:06:27;20.60;99.90
5588;DHT22;2816;49.778;9.986;2023-06-22T05:08:56;20.70;99.90
5588;DHT22;2816;49.778;9.986;2023-06-22T05:11:25;20.70;99.90
5588;DHT22;2816;49.778;9.986;2023-06-22T05:13:52;20.70;99.90
5588;DHT22;2816;49.778;9.986;2023-06-22T05:16:20;20.80;99.90
5588;DHT22;2816;49.778;9.986;2023-06-22T05:18:51;20.80;99.90
5588;DHT22;2816;49.778;9.986;2023-06-22T05:21:21;20.90;99.90
5588;DHT22;2816;49.778;9.986;2023-06-22T05:23:48;20.80;99.90
5588;DHT22;2816;49.778;9.986;2023-06-22T05:26:16;20.80;99.90
5588;DHT22;2816;49.778;9.986;2023-06-22T05:28:43;20.80;99.90
5588;DHT22;2816;49.778;9.986;2023-06-22T05:31:11;20.90;99.90
5588;DHT22;2816;49.778;9.986;2023-06-22T05:33:39;20.90;99.90
5588;DHT22;2816;49.778;9.986;2023-06-22T05:36:05;20.90;99.90
5588;DHT22;2816;49.778;9.986;2023-06-22T05:38:33;20.90;99.90
5588;DHT22;2816;49.778;9.986;2023-06-22T05:40:59;20.90;99.90
5588;DHT22;2816;49.778;9.986;2023-06-22T05:43:28;20.90;99.90
5588;DHT22;2816;49.778;9.986;2023-06-22T05:45:55;20.90;99.90
5588;DHT22;2816;49.778;9.986;2023-06-22T05:48:22;20.90;99.90
5588;DHT22;2816;49.778;9.986;2023-06-22T05:50:49;21.00;99.90
5588;DHT22;2816;49.778;9.986;2023-06-22T05:53:16;21.10;99.90
5588;DHT22;2816;49.778;9.986;2023-06-22T05:55:43;21.10;99.90
5588;DHT22;2816;49.778;9.986;2023-06-22T05:58:10;21.10;99.90
5588;DHT22;2816;49.778;9.986;2023-06-22T06:00:40;21.20;99.90
5588;DHT22;2816;49.778;9.986;2023-06-22T06:03:07;21.20;99.90
5588;DHT22;2816;49.778;9.986;2023-06-22T06:05:35;21.20;99.90
5588;DHT22;2816;49.778;9.986;2023-06-22T06:08:03;21.20;99.90
5588;DHT22;2816;49.778;9.986;2023-06-22T06:10:30;21.20;99.90
5588;DHT22;2816;49.778;9.986;2023-06-22T06:12:58;21.40;99.90
5588;DHT22;2816;49.778;9.986;2023-06-22T06:15:27;21.40;99.90
5588;DHT22;2816;49.778;9.986;2023-06-22T06:17:55;21.40;99.90
5588;DHT22;2816;49.778;9.986;2023-06-22T06:20:23;21.40;99.90
5588;DHT22;2816;49.778;9.986;2023-06-22T06:22:50;21.50;99.90
5588;DHT22;2816;49.778;9.986;2023-06-22T06:25:18;21.40;99.90
5588;DHT22;2816;49.778;9.986;2023-06-22T06:27:48;21.50;99.90
5588;DHT22;2816;49.778;9.986;2023-06-22T06:30:17;21.60;99.90
5588;DHT22;2816;49.778;9.986;2023-06-22T06:32:45;21.70;99.90
5588;DHT22;2816;49.778;9.986;2023-06-22T06:35:14;21.70;99.90
5588;DHT22;2816;49.778;9.986;2023-06-22T06:37:43;21.80;99.90
5588;DHT22;2816;49.778;9.986;2023-06-22T06:40:12;21.90;99.90
5588;DHT22;2816;49.778;9.986;2023-06-22T06:42:40;22.00;99.90
5588;DHT22;2816;49.778;9.986;2023-06-22T06:45:09;22.00;99.90
5588;DHT22;2816;49.778;9.986;2023-06-22T06:47:36;22.10;99.90
5588;DHT22;2816;49.778;9.986;2023-06-22T06:50:04;22.20;99.90
5588;DHT22;2816;49.778;9.986;2023-06-22T06:52:33;22.20;99.90
5588;DHT22;2816;49.778;9.986;2023-06-22T06:55:00;22.30;99.90
5588;DHT22;2816;49.778;9.986;2023-06-22T06:57:27;22.30;99.90
5588;DHT22;2816;49.778;9.986;2023-06-22T06:59:54;22.40;99.90
5588;DHT22;2816;49.778;9.986;2023-06-22T07:02:22;22.40;99.90
5588;DHT22;2816;49.778;9.986;2023-06-22T07:04:50;22.50;99.90
5588;DHT22;2816;49.778;9.986;2023-06-22T07:07:16;22.50;99.90
5588;DHT22;2816;49.778;9.986;2023-06-22T07:09:45;22.60;99.90
5588;DHT22;2816;49.778;9.986;2023-06-22T07:12:12;22.70;99.90
5588;DHT22;2816;49.778;9.986;2023-06-22T07:14:38;22.80;99.90
5588;DHT22;2816;49.778;9.986;2023-06-22T07:17:05;22.80;99.90
5588;DHT22;2816;49.778;9.986;2023-06-22T07:19:33;22.90;99.90
5588;DHT22;2816;49.778;9.986;2023-06-22T07:22:00;23.00;99.90
5588;DHT22;2816;49.778;9.986;2023-06-22T07:24:27;23.10;99.90
5588;DHT22;2816;49.778;9.986;2023-06-22T07:26:55;23.20;99.90
5588;DHT22;2816;49.778;9.986;2023-06-22T07:29:23;23.20;99.90
5588;DHT22;2816;49.778;9.986;2023-06-22T07:31:50;23.30;99.90
5588;DHT22;2816;49.778;9.986;2023-06-22T07:34:17;23.40;99.90
5588;DHT22;2816;49.778;9.986;2023-06-22T07:36:45;23.40;99.90
5588;DHT22;2816;49.778;9.986;2023-06-22T07:39:12;23.50;99.90
5588;DHT22;2816;49.778;9.986;2023-06-22T07:41:40;23.70;99.90
5588;DHT22;2816;49.778;9.986;2023-06-22T07:44:08;23.70;99.90
5588;DHT22;2816;49.778;9.986;2023-06-22T07:46:35;23.80;99.90
5588;DHT22;2816;49.778;9.986;2023-06-22T07:49:02;23.80;99.90
5588;DHT22;2816;49.778;9.986;2023-06-22T07:51:30;23.80;99.90
5588;DHT22;2816;49.778;9.986;2023-06-22T07:53:57;23.90;99.90
5588;DHT22;2816;49.778;9.986;2023-06-22T07:56:24;24.00;99.90
5588;DHT22;2816;49.778;9.986;2023-06-22T07:58:51;24.10;99.90
5588;DHT22;2816;49.778;9.986;2023-06-22T08:01:20;24.00;99.90
5588;DHT22;2816;49.778;9.986;2023-06-22T08:03:48;24.00;99.90
5588;DHT22;2816;49.778;9.986;2023-06-22T08:06:15;24.20;99.90
5588;DHT22;2816;49.778;9.986;2023-06-22T08:08:42;24.30;99.90
5588;DHT22;2816;49.778;9.986;2023-06-22T08:11:09;24.20;99.90
5588;DHT22;2816;49.778;9.986;2023-06-22T08:13:36;24.40;99.90
5588;DHT22;2816;49.778;9.986;2023-06-22T08:16:03;24.50;99.90
5588;DHT22;2816;49.778;9.986;2023-06-22T08:18:31;24.50;99.90
5588;DHT22;2816;49.778;9.986;2023-06-22T08:20:58;24.60;99.90
5588;DHT22;2816;49.778;9.986;2023-06-22T08:23:25;24.70;99.90
5588;DHT22;2816;49.778;9.986;2023-06-22T08:25:52;24.80;99.90
5588;DHT22;2816;49.778;9.986;2023-06-22T08:28:19;24.90;99.90
5588;DHT22;2816;49.778;9.986;2023-06-22T08:30:46;24.90;99.90
5588;DHT22;2816;49.778;9.986;2023-06-22T08:33:13;25.10;99.90
5588;DHT22;2816;49.778;9.986;2023-06-22T08:35:42;25.10;99.90
5588;DHT22;2816;49.778;9.986;2023-06-22T08:38:09;25.20;99.90
5588;DHT22;2816;49.778;9.986;2023-06-22T08:40:36;25.20;99.90
5588;DHT22;2816;49.778;9.986;2023-06-22T08:43:03;25.40;99.90
5588;DHT22;2816;49.778;9.986;2023-06-22T08:45:31;25.40;99.90
5588;DHT22;2816;49.778;9.986;2023-06-22T08:47:57;25.50;99.90
5588;DHT22;2816;49.778;9.986;2023-06-22T08:50:24;25.60;99.90
5588;DHT22;2816;49.778;9.986;2023-06-22T08:52:53;25.70;99.90
5588;DHT22;2816;49.778;9.986;2023-06-22T08:55:20;25.80;99.90
5588;DHT22;2816;49.778;9.986;2023-06-22T08:57:47;25.90;99.90
5588;DHT22;2816;49.778;9.986;2023-06-22T09:00:14;26.10;99.90
5588;DHT22;2816;49.778;9.986;2023-06-22T09:02:43;26.10;99.90
5588;DHT22;2816;49.778;9.986;2023-06-22T09:05:10;26.10;99.90
5588;DHT22;2816;49.778;9.986;2023-06-22T09:07:37;26.30;99.90
5588;DHT22;2816;49.778;9.986;2023-06-22T09:10:06;26.30;99.90
5588;DHT22;2816;49.778;9.986;2023-06-22T09:12:33;26.30;99.90
5588;DHT22;2816;49.778;9.986;2023-06-22T09:15:04;26.30;99.90
5588;DHT22;2816;49.778;9.986;2023-06-22T09:17:33;26.40;99.90
5588;DHT22;2816;49.778;9.986;2023-06-22T09:20:00;26.60;99.90
5588;DHT22;2816;49.778;9.986;2023-06-22T09:22:28;26.70;99.90
5588;DHT22;2816;49.778;9.986;2023-06-22T09:24:55;26.80;99.90
5588;DHT22;2816;49.778;9.986;2023-06-22T09:27:23;26.90;99.90
5588;DHT22;2816;49.778;9.986;2023-06-22T09:29:50;26.80;99.90
5588;DHT22;2816;49.778;9.986;2023-06-22T09:32:17;26.70;99.90
5588;DHT22;2816;49.778;9.986;2023-06-22T09:34:44;26.90;99.90
5588;DHT22;2816;49.778;9.986;2023-06-22T09:37:11;27.00;99.90
5588;DHT22;2816;49.778;9.986;2023-06-22T09:39:38;27.10;99.90
5588;DHT22;2816;49.778;9.986;2023-06-22T09:42:06;27.30;99.90
5588;DHT22;2816;49.778;9.986;2023-06-22T09:44:34;27.40;99.90
5588;DHT22;2816;49.778;9.986;2023-06-22T09:47:01;27.60;99.90
5588;DHT22;2816;49.778;9.986;2023-06-22T09:49:28;27.70;99.90
5588;DHT22;2816;49.778;9.986;2023-06-22T09:51:55;27.80;99.90
5588;DHT22;2816;49.778;9.986;2023-06-22T09:54:22;28.00;99.90
5588;DHT22;2816;49.778;9.986;2023-06-22T09:56:49;28.10;99.90
5588;DHT22;2816;49.778;9.986;2023-06-22T09:59:16;28.20;99.90
5588;DHT22;2816;49.778;9.986;2023-06-22T10:01:44;28.30;99.90
5588;DHT22;2816;49.778;9.986;2023-06-22T10:04:11;28.30;99.90
5588;DHT22;2816;49.778;9.986;2023-06-22T10:06:38;28.40;99.90
5588;DHT22;2816;49.778;9.986;2023-06-22T10:09:06;28.50;99.90
5588;DHT22;2816;49.778;9.986;2023-06-22T10:11:33;28.70;99.90
5588;DHT22;2816;49.778;9.986;2023-06-22T10:14:00;28.80;99.90
5588;DHT22;2816;49.778;9.986;2023-06-22T10:16:30;29.10;99.90
5588;DHT22;2816;49.778;9.986;2023-06-22T10:18:59;29.30;99.90
5588;DHT22;2816;49.778;9.986;2023-06-22T10:21:25;29.20;99.90
5588;DHT22;2816;49.778;9.986;2023-06-22T10:23:54;29.30;99.90
5588;DHT22;2816;49.778;9.986;2023-06-22T10:26:21;29.20;99.90
5588;DHT22;2816;49.778;9.986;2023-06-22T10:28:47;29.30;99.90
5588;DHT22;2816;49.778;9.986;2023-06-22T10:31:14;29.20;99.90
5588;DHT22;2816;49.778;9.986;2023-06-22T10:33:42;29.30;99.90
5588;DHT22;2816;49.778;9.986;2023-06-22T10:36:11;29.40;99.90
5588;DHT22;2816;49.778;9.986;2023-06-22T10:38:38;29.70;99.90
5588;DHT22;2816;49.778;9.986;2023-06-22T10:41:05;29.60;99.90
5588;DHT22;2816;49.778;9.986;2023-06-22T10:43:32;29.50;99.90
5588;DHT22;2816;49.778;9.986;2023-06-22T10:45:58;29.70;99.90
5588;DHT22;2816;49.778;9.986;2023-06-22T10:48:25;29.70;99.90
5588;DHT22;2816;49.778;9.986;2023-06-22T10:50:52;29.70;99.90
5588;DHT22;2816;49.778;9.986;2023-06-22T10:53:21;29.80;99.50
5588;DHT22;2816;49.778;9.986;2023-06-22T10:55:48;29.70;99.50
5588;DHT22;2816;49.778;9.986;2023-06-22T10:58:17;29.80;99.30
5588;DHT22;2816;49.778;9.986;2023-06-22T11:00:44;30.10;99.00
5588;DHT22;2816;49.778;9.986;2023-06-22T11:03:11;30.30;98.90
5588;DHT22;2816;49.778;9.986;2023-06-22T11:05:39;30.40;98.40
5588;DHT22;2816;49.778;9.986;2023-06-22T11:08:07;30.20;98.10
5588;DHT22;2816;49.778;9.986;2023-06-22T11:10:35;30.20;98.30
5588;DHT22;2816;49.778;9.986;2023-06-22T11:13:02;30.20;98.10
5588;DHT22;2816;49.778;9.986;2023-06-22T11:15:29;30.00;98.10
5588;DHT22;2816;49.778;9.986;2023-06-22T11:17:56;30.10;98.10
5588;DHT22;2816;49.778;9.986;2023-06-22T11:20:23;30.50;98.30
5588;DHT22;2816;49.778;9.986;2023-06-22T11:22:50;30.50;97.80
5588;DHT22;2816;49.778;9.986;2023-06-22T11:25:17;30.60;97.60
5588;DHT22;2816;49.778;9.986;2023-06-22T11:27:46;30.50;97.20
5588;DHT22;2816;49.778;9.986;2023-06-22T11:30:13;30.90;97.00
5588;DHT22;2816;49.778;9.986;2023-06-22T11:32:40;31.00;97.40
5588;DHT22;2816;49.778;9.986;2023-06-22T11:35:07;31.30;96.50
5588;DHT22;2816;49.778;9.986;2023-06-22T11:37:34;31.30;96.30
5588;DHT22;2816;49.778;9.986;2023-06-22T11:40:03;31.80;95.80
5588;DHT22;2816;49.778;9.986;2023-06-22T11:42:34;31.70;95.70
5588;DHT22;2816;49.778;9.986;2023-06-22T11:45:04;31.60;95.70
5588;DHT22;2816;49.778;9.986;2023-06-22T11:47:31;31.50;95.90
5588;DHT22;2816;49.778;9.986;2023-06-22T11:49:58;31.30;95.70
5588;DHT22;2816;49.778;9.986;2023-06-22T11:52:25;31.30;96.00
5588;DHT22;2816;49.778;9.986;2023-06-22T11:54:53;31.40;96.00
5588;DHT22;2816;49.778;9.986;2023-06-22T11:57:20;31.40;95.50
5588;DHT22;2816;49.778;9.986;2023-06-22T11:59:46;31.30;95.90
5588;DHT22;2816;49.778;9.986;2023-06-22T12:02:15;31.40;95.80
5588;DHT22;2816;49.778;9.986;2023-06-22T12:04:42;31.80;95.10
5588;DHT22;2816;49.778;9.986;2023-06-22T12:07:08;31.90;95.20
5588;DHT22;2816;49.778;9.986;2023-06-22T12:09:35;32.40;94.80
5588;DHT22;2816;49.778;9.986;2023-06-22T12:12:03;32.10;94.70
5588;DHT22;2816;49.778;9.986;2023-06-22T12:14:30;32.40;94.00
5588;DHT22;2816;49.778;9.986;2023-06-22T12:16:57;32.20;93.80
5588;DHT22;2816;49.778;9.986;2023-06-22T12:19:25;32.30;93.80
5588;DHT22;2816;49.778;9.986;2023-06-22T12:21:52;32.20;94.40
5588;DHT22;2816;49.778;9.986;2023-06-22T12:24:19;32.20;94.50
5588;DHT22;2816;49.778;9.986;2023-06-22T12:26:46;32.40;93.90
5588;DHT22;2816;49.778;9.986;2023-06-22T12:29:13;32.60;94.00
5588;DHT22;2816;49.778;9.986;2023-06-22T12:31:40;32.70;93.80
5588;DHT22;2816;49.778;9.986;2023-06-22T12:34:07;32.60;93.20
5588;DHT22;2816;49.778;9.986;2023-06-22T12:36:35;32.50;94.20
5588;DHT22;2816;49.778;9.986;2023-06-22T12:39:02;32.40;93.80
5588;DHT22;2816;49.778;9.986;2023-06-22T12:41:29;32.40;93.60
5588;DHT22;2816;49.778;9.986;2023-06-22T12:43:56;32.40;93.40
5588;DHT22;2816;49.778;9.986;2023-06-22T12:46:23;32.20;93.50
5588;DHT22;2816;49.778;9.986;2023-06-22T12:48:50;31.90;93.80
5588;DHT22;2816;49.778;9.986;2023-06-22T12:51:21;31.80;94.10
5588;DHT22;2816;49.778;9.986;2023-06-22T12:53:50;31.90;94.00
5588;DHT22;2816;49.778;9.986;2023-06-22T12:56:17;31.90;94.10
5588;DHT22;2816;49.778;9.986;2023-06-22T12:58:44;32.10;94.60
5588;DHT22;2816;49.778;9.986;2023-06-22T13:01:11;32.20;94.00
5588;DHT22;2816;49.778;9.986;2023-06-22T13:03:38;32.20;94.20
5588;DHT22;2816;49.778;9.986;2023-06-22T13:06:04;32.40;94.30
5588;DHT22;2816;49.778;9.986;2023-06-22T13:08:31;32.30;94.80
5588;DHT22;2816;49.778;9.986;2023-06-22T13:11:00;32.10;94.60
5588;DHT22;2816;49.778;9.986;2023-06-22T13:13:26;31.90;94.70
5588;DHT22;2816;49.778;9.986;2023-06-22T13:15:53;31.80;94.70
5588;DHT22;2816;49.778;9.986;2023-06-22T13:18:20;31.70;95.00
5588;DHT22;2816;49.778;9.986;2023-06-22T13:20:47;31.70;95.00
5588;DHT22;2816;49.778;9.986;2023-06-22T13:23:14;31.60;95.30
5588;DHT22;2816;49.778;9.986;2023-06-22T13:25:41;31.50;95.30
5588;DHT22;2816;49.778;9.986;2023-06-22T13:28:09;31.60;94.80
5588;DHT22;2816;49.778;9.986;2023-06-22T13:30:39;31.60;95.40
5588;DHT22;2816;49.778;9.986;2023-06-22T13:33:05;31.60;95.00
5588;DHT22;2816;49.778;9.986;2023-06-22T13:35:32;31.50;95.20
5588;DHT22;2816;49.778;9.986;2023-06-22T13:38:00;31.40;95.00
5588;DHT22;2816;49.778;9.986;2023-06-22T13:40:27;31.50;95.30
5588;DHT22;2816;49.778;9.986;2023-06-22T13:42:54;31.60;95.00
5588;DHT22;2816;49.778;9.986;2023-06-22T13:45:22;31.50;95.60
5588;DHT22;2816;49.778;9.986;2023-06-22T13:47:49;31.40;96.60
5588;DHT22;2816;49.778;9.986;2023-06-22T13:50:16;31.40;96.40
5588;DHT22;2816;49.778;9.986;2023-06-22T13:52:43;31.50;95.70
5588;DHT22;2816;49.778;9.986;2023-06-22T13:55:10;31.40;96.10
5588;DHT22;2816;49.778;9.986;2023-06-22T13:57:40;31.50;95.80
5588;DHT22;2816;49.778;9.986;2023-06-22T14:00:08;31.40;95.90
5588;DHT22;2816;49.778;9.986;2023-06-22T14:02:36;31.40;96.40
5588;DHT22;2816;49.778;9.986;2023-06-22T14:05:04;31.40;96.10
5588;DHT22;2816;49.778;9.986;2023-06-22T14:07:31;31.40;96.20
5588;DHT22;2816;49.778;9.986;2023-06-22T14:09:59;31.20;96.50
5588;DHT22;2816;49.778;9.986;2023-06-22T14:12:27;31.30;96.60
5588;DHT22;2816;49.778;9.986;2023-06-22T14:14:53;31.30;96.60
5588;DHT22;2816;49.778;9.986;2023-06-22T14:17:20;31.20;96.80
5588;DHT22;2816;49.778;9.986;2023-06-22T14:19:52;31.10;96.30
5588;DHT22;2816;49.778;9.986;2023-06-22T14:22:19;31.20;96.60
5588;DHT22;2816;49.778;9.986;2023-06-22T14:24:47;31.30;96.50
5588;DHT22;2816;49.778;9.986;2023-06-22T14:27:14;31.40;96.60
5588;DHT22;2816;49.778;9.986;2023-06-22T14:29:41;31.50;96.00
5588;DHT22;2816;49.778;9.986;2023-06-22T14:32:09;31.60;96.50
5588;DHT22;2816;49.778;9.986;2023-06-22T14:34:36;31.90;96.60
5588;DHT22;2816;49.778;9.986;2023-06-22T14:37:06;32.10;95.50
5588;DHT22;2816;49.778;9.986;2023-06-22T14:39:35;32.40;95.90
5588;DHT22;2816;49.778;9.986;2023-06-22T14:42:02;32.50;94.70
5588;DHT22;2816;49.778;9.986;2023-06-22T14:44:30;32.70;95.50
5588;DHT22;2816;49.778;9.986;2023-06-22T14:46:57;32.80;94.80
5588;DHT22;2816;49.778;9.986;2023-06-22T14:49:24;33.00;94.70
5588;DHT22;2816;49.778;9.986;2023-06-22T14:51:51;32.70;94.90
5588;DHT22;2816;49.778;9.986;2023-06-22T14:54:19;32.60;94.00
5588;DHT22;2816;49.778;9.986;2023-06-22T14:56:47;32.60;92.70
5588;DHT22;2816;49.778;9.986;2023-06-22T14:59:14;32.30;94.30
5588;DHT22;2816;49.778;9.986;2023-06-22T15:01:40;32.40;91.90
5588;DHT22;2816;49.778;9.986;2023-06-22T15:04:07;32.40;94.10
5588;DHT22;2816;49.778;9.986;2023-06-22T15:06:34;32.60;91.80
5588;DHT22;2816;49.778;9.986;2023-06-22T15:09:01;33.00;91.70
5588;DHT22;2816;49.778;9.986;2023-06-22T15:11:29;33.00;91.30
5588;DHT22;2816;49.778;9.986;2023-06-22T15:13:58;33.20;91.00
5588;DHT22;2816;49.778;9.986;2023-06-22T15:16:25;33.00;91.90
5588;DHT22;2816;49.778;9.986;2023-06-22T15:18:52;33.30;91.70
5588;DHT22;2816;49.778;9.986;2023-06-22T15:21:19;33.60;89.70
5588;DHT22;2816;49.778;9.986;2023-06-22T15:23:46;33.50;91.00
5588;DHT22;2816;49.778;9.986;2023-06-22T15:26:13;33.30;89.30
5588;DHT22;2816;49.778;9.986;2023-06-22T15:28:41;33.50;85.70
5588;DHT22;2816;49.778;9.986;2023-06-22T15:31:08;33.40;85.90
5588;DHT22;2816;49.778;9.986;2023-06-22T15:33:35;33.40;87.30
5588;DHT22;2816;49.778;9.986;2023-06-22T15:36:02;33.40;86.60
5588;DHT22;2816;49.778;9.986;2023-06-22T15:38:31;33.60;84.70
5588;DHT22;2816;49.778;9.986;2023-06-22T15:40:58;33.50;85.20
5588;DHT22;2816;49.778;9.986;2023-06-22T15:43:25;33.60;84.10
5588;DHT22;2816;49.778;9.986;2023-06-22T15:45:53;33.60;85.70
5588;DHT22;2816;49.778;9.986;2023-06-22T15:48:20;33.60;84.80
5588;DHT22;2816;49.778;9.986;2023-06-22T15:50:47;33.30;84.00
5588;DHT22;2816;49.778;9.986;2023-06-22T15:53:14;33.50;84.70
5588;DHT22;2816;49.778;9.986;2023-06-22T15:55:41;33.30;82.40
5588;DHT22;2816;49.778;9.986;2023-06-22T15:58:08;33.00;85.10
5588;DHT22;2816;49.778;9.986;2023-06-22T16:00:38;33.10;84.50
5588;DHT22;2816;49.778;9.986;2023-06-22T16:03:06;33.00;85.50
5588;DHT22;2816;49.778;9.986;2023-06-22T16:05:33;32.90;83.90